createdAt,value
2022-10-09T09:15:08.817Z,4.50
2022-10-09T09:17:45.274Z,3.40
2022-10-09T09:20:16.655Z,3.10
2022-10-09T09:22:47.946Z,3.00
2022-10-09T09:25:20.146Z,3.30
2022-10-09T09:27:47.716Z,4.20
2022-10-09T09:30:19.593Z,3.70
2022-10-09T09:33:13.036Z,4.10
2022-10-09T09:35:49.600Z,6.20
2022-10-09T09:38:19.835Z,3.60
2022-10-09T09:40:47.599Z,3.20
2022-10-09T09:43:23.263Z,3.20
2022-10-09T09:45:55.750Z,3.40
2022-10-09T09:48:33.799Z,3.10
2022-10-09T09:51:26.711Z,3.50
2022-10-09T09:53:56.518Z,3.30
2022-10-09T09:56:59.859Z,3.70
2022-10-09T09:59:40.168Z,3.50
2022-10-09T10:02:24.127Z,3.30
2022-10-09T10:04:59.177Z,3.10
2022-10-09T10:07:35.006Z,3.20
2022-10-09T10:10:22.494Z,3.30
2022-10-09T10:12:53.333Z,3.70
2022-10-09T10:15:38.451Z,3.40
2022-10-09T10:18:06.024Z,3.10
2022-10-09T10:20:35.892Z,3.00
2022-10-09T10:23:02.937Z,3.10
2022-10-09T10:25:32.654Z,3.80
2022-10-09T10:28:13.384Z,3.20
2022-10-09T10:30:42.759Z,2.60
2022-10-09T10:33:24.883Z,2.60
2022-10-09T10:35:53.168Z,2.80
2022-10-09T10:38:41.192Z,2.40
2022-10-09T10:41:31.105Z,2.60
2022-10-09T10:44:07.834Z,3.30
2022-10-09T10:46:42.093Z,4.20
2022-10-09T10:49:09.665Z,3.50
2022-10-09T10:51:45.778Z,3.00
2022-10-09T10:54:16.779Z,2.70
2022-10-09T10:57:20.390Z,3.20
2022-10-09T10:59:49.118Z,3.50
2022-10-09T11:03:07.661Z,2.80
2022-10-09T11:05:47.694Z,2.80
2022-10-09T11:08:31.327Z,2.80
2022-10-09T11:11:23.406Z,3.10
2022-10-09T11:13:56.671Z,3.20
2022-10-09T11:16:39.727Z,3.10
2022-10-09T11:19:06.811Z,3.20
2022-10-09T11:21:53.155Z,3.10
2022-10-09T11:24:47.368Z,2.20
2022-10-09T11:27:19.271Z,3.30
2022-10-09T11:30:01.042Z,3.30
2022-10-09T11:32:32.076Z,2.90
2022-10-09T11:35:40.323Z,3.40
2022-10-09T11:38:25.468Z,3.40
2022-10-09T11:40:53.098Z,3.80
2022-10-09T11:43:26.010Z,5.40
2022-10-09T11:46:22.305Z,3.60
2022-10-09T11:49:05.161Z,2.80
2022-10-09T11:52:09.777Z,3.40
2022-10-09T11:54:37.091Z,3.60
2022-10-09T11:57:11.644Z,3.70
2022-10-09T11:59:45.238Z,3.40
2022-10-09T12:02:24.028Z,3.10
2022-10-09T12:04:56.178Z,4.20
2022-10-09T12:07:35.958Z,10.00
2022-10-09T12:10:06.149Z,6.10
2022-10-09T12:12:34.988Z,4.00
2022-10-09T12:15:24.547Z,4.30
2022-10-09T12:17:52.234Z,4.30
2022-10-09T12:20:21.719Z,19.70
2022-10-09T12:23:14.311Z,11.30
2022-10-09T12:25:44.271Z,4.20
2022-10-09T12:28:46.566Z,3.60
2022-10-09T12:31:30.878Z,3.70
2022-10-09T12:34:18.989Z,4.40
2022-10-09T12:36:45.913Z,3.70
2022-10-09T12:39:23.707Z,3.40
2022-10-09T12:41:52.397Z,4.30
2022-10-09T12:44:29.344Z,3.80
2022-10-09T12:47:05.840Z,4.60
2022-10-09T12:49:32.816Z,4.40
2022-10-09T12:52:00.529Z,4.00
2022-10-09T12:54:28.844Z,4.00
2022-10-09T12:56:56.894Z,4.00
2022-10-09T12:59:25.161Z,5.00
2022-10-09T13:01:55.532Z,4.90
2022-10-09T13:04:28.316Z,4.50
2022-10-09T13:06:56.900Z,4.10
2022-10-09T13:09:37.753Z,4.50
2022-10-09T13:12:09.589Z,4.00
2022-10-09T13:15:04.335Z,5.30
2022-10-09T13:17:37.239Z,5.10
2022-10-09T13:20:30.889Z,4.60
2022-10-09T13:22:59.415Z,4.40
2022-10-09T13:25:33.095Z,5.00
2022-10-09T13:28:00.250Z,4.90
2022-10-09T13:30:28.524Z,5.10
2022-10-09T13:32:55.723Z,5.70
2022-10-09T13:35:22.758Z,4.80
2022-10-09T13:37:49.943Z,4.50
2022-10-09T13:40:20.005Z,5.00
2022-10-09T13:42:52.131Z,4.90
2022-10-09T13:45:19.141Z,4.00
2022-10-09T13:47:46.454Z,5.10
2022-10-09T13:50:14.373Z,4.60
2022-10-09T13:52:41.280Z,4.30
2022-10-09T13:55:08.801Z,5.10
2022-10-09T13:57:36.636Z,6.30
2022-10-09T14:00:07.151Z,5.00
2022-10-09T14:02:34.579Z,4.90
2022-10-09T14:05:01.587Z,4.90
2022-10-09T14:07:30.396Z,4.80
2022-10-09T14:09:57.613Z,4.60
2022-10-09T14:12:24.974Z,4.40
2022-10-09T14:14:54.203Z,4.70
2022-10-09T14:17:21.415Z,4.10
2022-10-09T14:19:48.497Z,5.50
2022-10-09T14:22:15.570Z,6.00
2022-10-09T14:24:43.635Z,5.00
2022-10-09T14:27:11.021Z,5.20
2022-10-09T14:29:38.591Z,5.70
2022-10-09T14:32:05.962Z,6.30
2022-10-09T14:34:34.573Z,5.90
2022-10-09T14:37:04.905Z,6.10
2022-10-09T14:39:34.517Z,6.50
2022-10-09T14:42:01.862Z,6.90
2022-10-09T14:44:31.685Z,6.00
2022-10-09T14:46:59.336Z,6.90
2022-10-09T14:49:26.240Z,7.90
2022-10-09T14:51:54.297Z,8.40
2022-10-09T14:54:23.790Z,10.50
2022-10-09T14:56:50.882Z,9.60
2022-10-09T14:59:17.918Z,10.50
2022-10-09T15:01:44.929Z,9.90
2022-10-09T15:04:14.248Z,8.30
2022-10-09T15:06:41.223Z,9.00
2022-10-09T15:09:08.141Z,8.00
2022-10-09T15:11:35.359Z,10.50
2022-10-09T15:14:02.844Z,9.90
2022-10-09T15:16:30.195Z,10.30
2022-10-09T15:18:57.146Z,11.50
2022-10-09T15:21:29.430Z,11.00
2022-10-09T15:23:57.267Z,11.00
2022-10-09T15:26:25.722Z,10.60
2022-10-09T15:28:52.769Z,9.50
2022-10-09T15:31:22.826Z,10.80
2022-10-09T15:33:54.251Z,9.20
2022-10-09T15:36:25.431Z,9.20
2022-10-09T15:38:52.642Z,9.80
2022-10-09T15:41:24.721Z,10.70
2022-10-09T15:43:52.592Z,10.90
2022-10-09T15:46:19.542Z,9.50
2022-10-09T15:48:47.965Z,8.30
2022-10-09T15:51:15.112Z,9.90
2022-10-09T15:53:43.256Z,8.10
2022-10-09T15:56:12.418Z,8.90
2022-10-09T15:58:39.371Z,8.10
2022-10-09T16:01:08.694Z,8.60
2022-10-09T16:03:37.226Z,8.80
2022-10-09T16:06:05.838Z,10.00
2022-10-09T16:08:32.853Z,8.80
2022-10-09T16:10:59.900Z,8.60
2022-10-09T16:13:28.302Z,11.10
2022-10-09T16:15:55.451Z,10.40
2022-10-09T16:18:23.201Z,13.00
2022-10-09T16:20:50.710Z,13.20
2022-10-09T16:23:17.804Z,13.10
2022-10-09T16:25:45.406Z,14.30
2022-10-09T16:28:17.198Z,14.30
2022-10-09T16:30:45.644Z,12.30
2022-10-09T16:33:13.098Z,14.10
2022-10-09T16:35:40.403Z,14.00
2022-10-09T16:38:07.309Z,14.50
2022-10-09T16:41:00.942Z,12.90
2022-10-09T16:43:21.664Z,12.80
2022-10-09T16:45:49.695Z,12.60
2022-10-09T16:48:16.591Z,15.00
2022-10-09T16:50:43.688Z,12.20
2022-10-09T16:53:10.734Z,12.40
2022-10-09T16:55:38.068Z,11.20
2022-10-09T16:58:05.248Z,10.80
2022-10-09T17:00:32.595Z,11.60
2022-10-09T17:02:59.522Z,13.10
2022-10-09T17:05:26.820Z,12.90
2022-10-09T17:07:54.606Z,15.50
2022-10-09T17:10:21.627Z,13.90
2022-10-09T17:12:48.504Z,13.90
2022-10-09T17:15:15.588Z,14.10
2022-10-09T17:17:44.117Z,10.60
2022-10-09T17:20:11.077Z,11.10
2022-10-09T17:22:38.047Z,10.40
2022-10-09T17:25:06.339Z,11.60
2022-10-09T17:27:33.533Z,12.90
2022-10-09T17:30:00.484Z,16.40
2022-10-09T17:32:27.463Z,13.80
2022-10-09T17:34:54.289Z,15.70
2022-10-09T17:37:21.701Z,15.50
2022-10-09T17:39:52.022Z,15.80
2022-10-09T17:42:19.433Z,16.80
2022-10-09T17:44:46.975Z,15.00
2022-10-09T17:47:13.953Z,14.50
2022-10-09T17:49:41.243Z,15.00
2022-10-09T17:52:08.229Z,15.50
2022-10-09T17:54:35.112Z,16.40
2022-10-09T17:57:05.298Z,16.20
2022-10-09T17:59:34.439Z,16.10
2022-10-09T18:02:01.341Z,17.50
2022-10-09T18:04:28.726Z,18.00
2022-10-09T18:06:55.643Z,21.40
2022-10-09T18:09:22.537Z,22.60
2022-10-09T18:11:49.427Z,20.80
2022-10-09T18:14:16.363Z,17.80
2022-10-09T18:16:44.383Z,18.20
2022-10-09T18:19:13.170Z,21.20
2022-10-09T18:21:43.649Z,19.40
2022-10-09T18:24:11.065Z,17.70
2022-10-09T18:26:38.020Z,16.50
2022-10-09T18:29:05.290Z,13.70
2022-10-09T18:31:32.331Z,20.70
2022-10-09T18:33:59.560Z,22.90
2022-10-09T18:36:31.415Z,19.40
2022-10-09T18:39:00.913Z,17.30
2022-10-09T18:41:27.901Z,17.50
2022-10-09T18:43:55.094Z,19.00
2022-10-09T18:46:24.731Z,21.00
2022-10-09T18:48:51.616Z,20.80
2022-10-09T18:51:20.378Z,18.90
2022-10-09T18:53:49.749Z,21.60
2022-10-09T18:56:17.325Z,20.00
2022-10-09T18:58:44.230Z,22.80
2022-10-09T19:01:11.229Z,21.80
2022-10-09T19:03:38.095Z,22.90
2022-10-09T19:06:06.132Z,20.50
2022-10-09T19:08:36.549Z,18.10
2022-10-09T19:11:04.327Z,18.10
2022-10-09T19:13:31.200Z,20.00
2022-10-09T19:16:00.278Z,20.00
2022-10-09T19:18:27.380Z,18.90
2022-10-09T19:20:54.250Z,18.70
2022-10-09T19:23:22.133Z,16.10
2022-10-09T19:25:50.317Z,15.70
2022-10-09T19:28:17.500Z,15.40
2022-10-09T19:30:45.135Z,18.60
2022-10-09T19:33:12.938Z,17.10
2022-10-09T19:35:46.374Z,18.70
2022-10-09T19:38:13.602Z,17.30
2022-10-09T19:40:40.538Z,15.90
2022-10-09T19:43:07.634Z,15.60
2022-10-09T19:45:34.999Z,16.80
2022-10-09T19:48:01.973Z,17.60
2022-10-09T19:50:29.346Z,18.00
2022-10-09T19:52:56.454Z,16.70
2022-10-09T19:55:26.497Z,15.10
2022-10-09T19:57:56.104Z,15.70
2022-10-09T20:00:23.042Z,16.80
2022-10-09T20:02:50.098Z,17.70
2022-10-09T20:05:17.565Z,16.30
2022-10-09T20:07:44.596Z,15.10
2022-10-09T20:10:11.509Z,14.90
2022-10-09T20:12:38.551Z,15.60
2022-10-09T20:15:07.262Z,17.00
2022-10-09T20:17:35.199Z,14.70
2022-10-09T20:20:04.681Z,15.20
2022-10-09T20:22:32.059Z,14.60
2022-10-09T20:24:59.127Z,14.10
2022-10-09T20:27:26.059Z,14.30
2022-10-09T20:29:54.104Z,13.70
2022-10-09T20:32:25.607Z,11.50
2022-10-09T20:34:54.176Z,10.50
2022-10-09T20:37:21.067Z,11.80
2022-10-09T20:39:49.276Z,13.40
2022-10-09T20:42:18.364Z,15.00
2022-10-09T20:47:15.201Z,16.60
2022-10-09T20:49:43.837Z,19.00
2022-10-09T20:52:10.686Z,20.90
2022-10-09T20:54:39.456Z,21.20
2022-10-09T20:57:06.394Z,22.50
2022-10-09T20:59:33.453Z,19.40
2022-10-09T21:02:02.730Z,19.50
2022-10-09T21:04:31.665Z,19.50
2022-10-09T21:06:58.612Z,18.00
2022-10-09T21:09:32.955Z,18.30
2022-10-09T21:12:03.736Z,19.10
2022-10-09T21:14:30.812Z,21.70
2022-10-09T21:16:57.830Z,18.30
2022-10-09T21:19:26.576Z,19.60
2022-10-09T21:21:53.599Z,18.40
2022-10-09T21:24:20.518Z,20.90
2022-10-09T21:26:48.985Z,22.80
2022-10-09T21:29:16.035Z,20.00
2022-10-09T21:31:43.039Z,19.30
2022-10-09T21:34:10.336Z,20.90
2022-10-09T21:37:15.951Z,23.10
2022-10-09T21:39:34.853Z,23.90
2022-10-09T21:42:01.885Z,23.70
2022-10-09T21:44:30.272Z,23.80
2022-10-09T21:46:57.134Z,23.10
2022-10-09T21:52:26.759Z,23.20
2022-10-09T21:54:53.653Z,24.70
2022-10-09T21:57:20.842Z,24.60
2022-10-09T21:59:48.545Z,25.30
2022-10-09T22:02:15.668Z,25.90
2022-10-09T22:04:42.597Z,22.20
2022-10-09T22:10:04.068Z,20.30
2022-10-09T22:12:34.090Z,19.70
2022-10-09T22:15:04.508Z,18.30
2022-10-09T22:17:35.066Z,19.80
2022-10-09T22:23:14.935Z,17.50
2022-10-09T22:28:30.897Z,15.80
2022-10-09T22:31:01.794Z,16.90
2022-10-09T22:33:29.131Z,17.10
2022-10-09T22:36:26.503Z,16.90
2022-10-09T22:38:55.484Z,17.20
2022-10-09T22:41:22.816Z,18.60
2022-10-09T22:43:51.655Z,17.30
2022-10-09T22:46:23.754Z,18.60
2022-10-09T22:48:51.087Z,18.30
2022-10-09T22:51:19.336Z,17.90
2022-10-09T22:53:46.693Z,20.80
2022-10-09T22:56:15.337Z,20.80
2022-10-09T22:58:42.925Z,20.90
2022-10-09T23:01:15.456Z,21.30
2022-10-09T23:06:39.320Z,18.70
2022-10-09T23:09:07.088Z,18.10
2022-10-09T23:11:35.965Z,17.70
2022-10-09T23:14:03.187Z,17.50
2022-10-09T23:19:26.867Z,18.50
2022-10-09T23:21:53.914Z,16.80
2022-10-09T23:24:20.828Z,15.70
2022-10-09T23:26:50.408Z,15.70
2022-10-09T23:29:18.612Z,16.00
2022-10-09T23:31:45.547Z,15.70
2022-10-09T23:34:13.385Z,15.10
2022-10-09T23:36:40.944Z,16.00
2022-10-09T23:44:55.929Z,13.30
2022-10-09T23:47:22.838Z,13.10
2022-10-09T23:49:49.707Z,10.70
2022-10-09T23:52:17.078Z,12.60
2022-10-09T23:54:43.998Z,11.80
2022-10-09T23:57:11.160Z,11.90
2022-10-09T23:59:39.530Z,13.80
